createdAt,value
2022-12-04T00:01:22.961Z,95.10
2022-12-04T00:03:59.050Z,95.05
2022-12-04T00:06:26.982Z,94.72
2022-12-04T00:08:54.310Z,94.94
2022-12-04T00:11:25.885Z,94.76
2022-12-04T00:13:52.764Z,95.13
2022-12-04T00:16:22.895Z,94.38
2022-12-04T00:18:50.457Z,94.53
2022-12-04T00:21:18.214Z,94.49
2022-12-04T00:23:45.815Z,94.36
2022-12-04T00:26:21.804Z,94.89
2022-12-04T00:28:50.957Z,95.30
2022-12-04T00:31:23.960Z,94.58
2022-12-04T00:33:51.353Z,94.61
2022-12-04T00:36:21.065Z,95.10
2022-12-04T00:38:48.464Z,94.24
2022-12-04T00:41:17.756Z,94.24
2022-12-04T00:43:44.567Z,94.68
2022-12-04T00:46:12.132Z,95.10
2022-12-04T00:48:39.006Z,94.86
2022-12-04T00:51:07.713Z,94.06
2022-12-04T00:53:34.795Z,94.24
2022-12-04T00:56:06.184Z,94.35
2022-12-04T00:58:33.526Z,94.77
2022-12-04T01:01:10.005Z,95.13
2022-12-04T01:03:37.014Z,95.04
2022-12-04T01:06:04.862Z,95.38
2022-12-04T01:08:33.441Z,94.80
2022-12-04T01:11:00.554Z,94.94
2022-12-04T01:13:27.353Z,95.47
2022-12-04T01:15:53.967Z,95.81
2022-12-04T01:18:20.629Z,96.12
2022-12-04T01:20:50.603Z,96.08
2022-12-04T01:23:18.629Z,96.21
2022-12-04T01:25:58.677Z,95.08
2022-12-04T01:28:25.780Z,95.56
2022-12-04T01:31:00.183Z,94.93
2022-12-04T01:33:27.659Z,94.96
2022-12-04T01:35:56.270Z,94.64
2022-12-04T01:38:23.664Z,94.70
2022-12-04T01:40:50.480Z,94.46
2022-12-04T01:43:19.134Z,95.18
2022-12-04T01:45:47.081Z,95.76
2022-12-04T01:48:26.702Z,95.02
2022-12-04T01:50:58.447Z,95.38
2022-12-04T01:53:25.885Z,95.49
2022-12-04T01:55:53.423Z,95.51
2022-12-04T01:58:26.310Z,95.09
2022-12-04T02:00:58.534Z,95.22
2022-12-04T02:03:25.778Z,95.50
2022-12-04T02:05:52.370Z,95.55
2022-12-04T02:08:19.572Z,95.93
2022-12-04T02:10:57.436Z,96.00
2022-12-04T02:13:38.986Z,96.66
2022-12-04T02:16:17.868Z,96.27
2022-12-04T02:19:17.791Z,96.68
2022-12-04T02:21:49.037Z,96.03
2022-12-04T02:24:21.810Z,95.54
2022-12-04T02:27:30.691Z,95.20
2022-12-04T02:30:05.717Z,96.20
2022-12-04T02:33:01.303Z,96.52
2022-12-04T02:35:33.726Z,97.10
2022-12-04T02:38:19.866Z,96.95
2022-12-04T02:41:08.291Z,96.52
2022-12-04T02:43:39.038Z,95.98
2022-12-04T02:46:11.254Z,96.21
2022-12-04T02:48:41.326Z,96.70
2022-12-04T02:51:11.863Z,97.44
2022-12-04T02:53:47.592Z,97.64
2022-12-04T02:56:19.567Z,97.82
2022-12-04T02:58:54.677Z,98.32
2022-12-04T03:01:27.607Z,98.49
2022-12-04T03:03:56.973Z,98.92
2022-12-04T03:06:27.177Z,99.48
2022-12-04T03:09:00.667Z,99.66
2022-12-04T03:11:31.253Z,99.93
2022-12-04T03:14:07.056Z,100.00
2022-12-04T03:16:40.188Z,99.63
2022-12-04T03:19:21.332Z,99.67
2022-12-04T03:22:02.644Z,99.68
2022-12-04T03:24:55.441Z,99.44
2022-12-04T03:27:58.910Z,99.31
2022-12-04T03:30:26.095Z,99.14
2022-12-04T03:33:03.041Z,98.77
2022-12-04T03:35:39.960Z,99.68
2022-12-04T03:38:16.016Z,99.86
2022-12-04T03:41:01.471Z,99.95
2022-12-04T03:43:36.942Z,100.00
2022-12-04T03:46:11.647Z,100.00
2022-12-04T03:48:41.377Z,100.00
2022-12-04T03:51:24.396Z,100.00
2022-12-04T03:53:56.310Z,99.93
2022-12-04T03:56:26.695Z,100.00
2022-12-04T03:58:58.449Z,100.00
2022-12-04T04:01:32.948Z,100.00
2022-12-04T04:04:03.511Z,100.00
2022-12-04T04:06:39.382Z,100.00
2022-12-04T04:09:13.154Z,100.00
2022-12-04T04:11:49.937Z,100.00
2022-12-04T04:14:28.052Z,99.71
2022-12-04T04:17:02.098Z,100.00
2022-12-04T04:19:30.961Z,99.67
2022-12-04T04:22:00.085Z,100.00
2022-12-04T04:24:43.734Z,100.00
2022-12-04T04:27:10.768Z,99.89
2022-12-04T04:29:38.918Z,99.71
2022-12-04T04:32:14.156Z,100.00
2022-12-04T04:34:43.518Z,100.00
2022-12-04T04:37:40.608Z,100.00
2022-12-04T04:40:12.063Z,99.08
2022-12-04T04:43:04.937Z,98.58
2022-12-04T04:46:01.410Z,99.20
2022-12-04T04:48:34.601Z,98.97
2022-12-04T04:51:03.410Z,99.43
2022-12-04T04:54:05.806Z,99.59
2022-12-04T04:56:32.566Z,99.21
2022-12-04T04:58:59.122Z,100.00
2022-12-04T05:01:28.572Z,100.00
2022-12-04T05:03:55.199Z,100.00
2022-12-04T05:06:21.850Z,99.95
2022-12-04T05:08:48.739Z,99.50
2022-12-04T05:11:16.681Z,100.00
2022-12-04T05:13:43.378Z,99.89
2022-12-04T05:16:15.695Z,100.00
2022-12-04T05:18:42.807Z,100.00
2022-12-04T05:21:12.924Z,100.00
2022-12-04T05:23:39.626Z,100.00
2022-12-04T05:26:06.240Z,100.00
2022-12-04T05:28:32.859Z,100.00
2022-12-04T05:31:02.424Z,100.00
2022-12-04T05:33:30.222Z,100.00
2022-12-04T05:36:01.629Z,100.00
2022-12-04T05:38:28.975Z,100.00
2022-12-04T05:40:58.443Z,100.00
2022-12-04T05:43:25.285Z,100.00
2022-12-04T05:45:52.150Z,100.00
2022-12-04T05:48:18.774Z,100.00
2022-12-04T05:50:45.395Z,100.00
2022-12-04T05:53:12.607Z,100.00
2022-12-04T05:55:39.201Z,100.00
2022-12-04T05:58:05.885Z,100.00
2022-12-04T06:00:32.530Z,100.00
2022-12-04T06:02:59.344Z,100.00
2022-12-04T06:05:26.057Z,100.00
2022-12-04T06:07:52.844Z,100.00
2022-12-04T06:10:19.461Z,100.00
2022-12-04T06:12:46.145Z,100.00
2022-12-04T06:15:12.752Z,100.00
2022-12-04T06:17:39.405Z,100.00
2022-12-04T06:20:11.123Z,100.00
2022-12-04T06:22:38.633Z,100.00
2022-12-04T06:25:05.606Z,100.00
2022-12-04T06:27:32.293Z,100.00
2022-12-04T06:29:59.235Z,100.00
2022-12-04T06:32:26.299Z,100.00
2022-12-04T06:34:54.578Z,100.00
2022-12-04T06:37:23.268Z,100.00
2022-12-04T06:39:49.858Z,100.00
2022-12-04T06:42:16.744Z,100.00
2022-12-04T06:44:43.896Z,100.00
2022-12-04T06:47:10.595Z,100.00
2022-12-04T06:49:37.263Z,100.00
2022-12-04T06:52:04.061Z,100.00
2022-12-04T06:54:30.732Z,100.00
2022-12-04T06:56:57.576Z,100.00
2022-12-04T06:59:24.298Z,100.00
2022-12-04T07:01:51.042Z,100.00
2022-12-04T07:04:17.721Z,100.00
2022-12-04T07:06:44.474Z,100.00
2022-12-04T07:09:15.087Z,100.00
2022-12-04T07:11:43.126Z,100.00
2022-12-04T07:14:11.341Z,100.00
2022-12-04T07:16:41.523Z,100.00
2022-12-04T07:19:13.908Z,100.00
2022-12-04T07:21:41.638Z,100.00
2022-12-04T07:24:08.580Z,100.00
2022-12-04T07:26:35.280Z,100.00
2022-12-04T07:29:01.904Z,100.00
2022-12-04T07:31:29.677Z,100.00
2022-12-04T07:33:57.140Z,100.00
2022-12-04T07:36:24.907Z,100.00
2022-12-04T07:38:52.056Z,100.00
2022-12-04T07:41:19.226Z,100.00
2022-12-04T07:43:45.980Z,100.00
2022-12-04T07:46:15.875Z,100.00
2022-12-04T07:48:43.034Z,100.00
2022-12-04T07:51:29.974Z,100.00
2022-12-04T07:54:02.005Z,100.00
2022-12-04T07:56:30.266Z,100.00
2022-12-04T07:58:56.958Z,100.00
2022-12-04T08:01:24.994Z,100.00
2022-12-04T08:03:56.385Z,100.00
2022-12-04T08:06:24.992Z,100.00
2022-12-04T08:08:54.274Z,100.00
2022-12-04T08:11:23.120Z,100.00
2022-12-04T08:13:55.564Z,100.00
2022-12-04T08:16:22.574Z,100.00
2022-12-04T08:18:49.238Z,100.00
2022-12-04T08:21:20.455Z,100.00
2022-12-04T08:23:49.389Z,100.00
2022-12-04T08:26:16.933Z,100.00
2022-12-04T08:28:43.775Z,100.00
2022-12-04T08:31:14.663Z,100.00
2022-12-04T08:33:44.824Z,100.00
2022-12-04T08:36:14.552Z,100.00
2022-12-04T08:38:41.762Z,100.00
2022-12-04T08:41:11.768Z,100.00
2022-12-04T08:43:38.710Z,100.00
2022-12-04T08:46:11.389Z,100.00
2022-12-04T08:48:38.900Z,100.00
2022-12-04T08:51:06.394Z,100.00
2022-12-04T08:53:33.207Z,100.00
2022-12-04T08:56:04.480Z,100.00
2022-12-04T08:58:31.551Z,100.00
2022-12-04T09:01:08.048Z,100.00
2022-12-04T09:03:35.468Z,100.00
2022-12-04T09:06:04.099Z,100.00
2022-12-04T09:08:31.294Z,100.00
2022-12-04T09:11:08.614Z,100.00
2022-12-04T09:13:36.107Z,100.00
2022-12-04T09:16:08.856Z,100.00
2022-12-04T09:18:37.399Z,100.00
2022-12-04T09:21:08.512Z,100.00
2022-12-04T09:23:36.828Z,100.00
2022-12-04T09:26:05.287Z,100.00
2022-12-04T09:28:31.987Z,100.00
2022-12-04T09:31:03.050Z,100.00
2022-12-04T09:33:30.360Z,100.00
2022-12-04T09:36:00.973Z,100.00
2022-12-04T09:38:29.251Z,100.00
2022-12-04T09:41:10.676Z,100.00
2022-12-04T09:43:53.709Z,99.49
2022-12-04T09:46:39.438Z,99.51
2022-12-04T09:49:35.604Z,99.30
2022-12-04T09:52:07.569Z,98.58
2022-12-04T09:54:40.461Z,98.78
2022-12-04T09:57:24.306Z,98.12
2022-12-04T09:59:53.192Z,98.43
2022-12-04T10:02:34.966Z,99.26
2022-12-04T10:05:02.361Z,98.41
2022-12-04T10:07:36.957Z,97.90
2022-12-04T10:10:18.676Z,97.88
2022-12-04T10:13:02.557Z,97.86
2022-12-04T10:15:57.037Z,98.31
2022-12-04T10:18:50.236Z,98.55
2022-12-04T10:21:33.538Z,98.79
2022-12-04T10:24:18.771Z,99.30
2022-12-04T10:26:47.818Z,99.13
2022-12-04T10:29:26.209Z,98.92
2022-12-04T10:31:56.881Z,98.81
2022-12-04T10:34:29.279Z,99.69
2022-12-04T10:37:04.540Z,99.29
2022-12-04T10:39:42.232Z,99.82
2022-12-04T10:42:15.205Z,100.00
2022-12-04T10:44:41.865Z,100.00
2022-12-04T10:47:12.173Z,100.00
2022-12-04T10:49:39.517Z,100.00
2022-12-04T10:52:06.918Z,100.00
2022-12-04T10:54:37.509Z,100.00
2022-12-04T10:57:09.815Z,100.00
2022-12-04T10:59:52.152Z,100.00
2022-12-04T11:02:23.567Z,100.00
2022-12-04T11:04:57.631Z,100.00
2022-12-04T11:07:28.127Z,100.00
2022-12-04T11:10:21.107Z,100.00
2022-12-04T11:13:00.458Z,100.00
2022-12-04T11:15:27.492Z,100.00
2022-12-04T11:17:54.135Z,100.00
2022-12-04T11:20:23.738Z,100.00
2022-12-04T11:22:57.799Z,100.00
2022-12-04T11:25:34.460Z,100.00
2022-12-04T11:28:03.346Z,100.00
2022-12-04T11:30:37.321Z,100.00
2022-12-04T11:33:14.822Z,100.00
2022-12-04T11:35:41.674Z,100.00
2022-12-04T11:38:15.507Z,100.00
2022-12-04T11:40:55.830Z,100.00
2022-12-04T11:43:28.039Z,100.00
2022-12-04T11:46:00.858Z,100.00
2022-12-04T11:48:32.169Z,100.00
2022-12-04T11:51:35.093Z,100.00
2022-12-04T11:54:28.195Z,100.00
2022-12-04T11:57:25.634Z,100.00
2022-12-04T12:00:14.713Z,100.00
2022-12-04T12:03:08.062Z,100.00
2022-12-04T12:05:57.894Z,100.00
2022-12-04T12:08:38.876Z,100.00
2022-12-04T12:11:33.509Z,100.00
2022-12-04T12:14:11.101Z,100.00
2022-12-04T12:16:51.659Z,100.00
2022-12-04T12:19:45.389Z,99.16
2022-12-04T12:22:48.136Z,99.46
2022-12-04T12:25:36.932Z,99.31
2022-12-04T12:28:19.229Z,99.49
2022-12-04T12:31:32.142Z,100.00
2022-12-04T12:34:18.977Z,99.71
2022-12-04T12:36:51.955Z,99.48
2022-12-04T12:39:30.880Z,99.89
2022-12-04T12:42:01.730Z,98.80
2022-12-04T12:44:53.502Z,99.11
2022-12-04T12:47:30.399Z,98.53
2022-12-04T12:50:11.187Z,98.73
2022-12-04T12:53:02.883Z,99.04
2022-12-04T12:56:10.754Z,100.00
2022-12-04T12:58:51.808Z,99.49
2022-12-04T13:01:39.604Z,98.72
2022-12-04T13:04:40.194Z,99.24
2022-12-04T13:07:19.607Z,99.82
2022-12-04T13:10:16.404Z,99.65
2022-12-04T13:13:05.641Z,99.35
2022-12-04T13:15:43.573Z,99.10
2022-12-04T13:18:23.529Z,99.40
2022-12-04T13:20:56.646Z,98.65
2022-12-04T13:23:55.693Z,99.24
2022-12-04T13:26:25.225Z,99.71
2022-12-04T13:29:15.210Z,99.51
2022-12-04T13:32:01.570Z,99.04
2022-12-04T13:34:51.345Z,98.90
2022-12-04T13:37:41.088Z,99.30
2022-12-04T13:40:31.073Z,99.68
2022-12-04T13:43:28.306Z,99.50
2022-12-04T13:46:00.151Z,98.01
2022-12-04T13:48:48.372Z,97.76
2022-12-04T13:51:41.183Z,97.39
2022-12-04T13:54:11.054Z,97.06
2022-12-04T13:56:44.184Z,96.88
2022-12-04T13:59:28.310Z,96.62
2022-12-04T14:02:02.252Z,96.52
2022-12-04T14:04:45.387Z,97.25
2022-12-04T14:07:55.876Z,97.24
2022-12-04T14:10:29.785Z,96.58
2022-12-04T14:13:15.326Z,96.90
2022-12-04T14:15:47.070Z,96.92
2022-12-04T14:18:32.556Z,97.18
2022-12-04T14:21:06.104Z,97.90
2022-12-04T14:23:46.063Z,97.47
2022-12-04T14:26:48.781Z,97.46
2022-12-04T14:29:32.213Z,97.63
2022-12-04T14:32:08.898Z,98.04
2022-12-04T14:34:40.093Z,98.83
2022-12-04T14:37:38.866Z,99.54
2022-12-04T14:40:16.796Z,100.00
2022-12-04T14:45:39.036Z,100.00
2022-12-04T14:48:24.716Z,100.00
2022-12-04T14:51:13.089Z,100.00
2022-12-04T14:53:56.679Z,100.00
2022-12-04T14:56:45.356Z,100.00
2022-12-04T14:59:21.490Z,100.00
2022-12-04T15:01:52.329Z,100.00
2022-12-04T15:04:35.626Z,100.00
2022-12-04T15:07:05.209Z,100.00
2022-12-04T15:09:32.881Z,100.00
2022-12-04T15:12:00.749Z,100.00
2022-12-04T15:14:27.514Z,100.00
2022-12-04T15:17:04.035Z,100.00
2022-12-04T15:19:36.348Z,100.00
2022-12-04T15:22:11.309Z,100.00
2022-12-04T15:24:38.943Z,100.00
2022-12-04T15:27:06.657Z,100.00
2022-12-04T15:29:36.031Z,100.00
2022-12-04T15:32:08.189Z,100.00
2022-12-04T15:34:47.826Z,100.00
2022-12-04T15:37:28.594Z,100.00
2022-12-04T15:39:56.552Z,100.00
2022-12-04T15:42:23.204Z,100.00
2022-12-04T15:44:59.663Z,100.00
2022-12-04T15:47:29.128Z,100.00
2022-12-04T15:50:09.284Z,100.00
2022-12-04T15:52:37.290Z,100.00
2022-12-04T15:55:09.074Z,100.00
2022-12-04T15:57:41.310Z,100.00
2022-12-04T16:00:32.645Z,100.00
2022-12-04T16:03:00.713Z,100.00
2022-12-04T16:05:33.550Z,100.00
2022-12-04T16:08:03.963Z,100.00
2022-12-04T16:10:34.101Z,99.81
2022-12-04T16:13:05.776Z,100.00
2022-12-04T16:15:39.250Z,100.00
2022-12-04T16:18:07.291Z,100.00
2022-12-04T16:20:38.021Z,100.00
2022-12-04T16:23:06.251Z,99.90
2022-12-04T16:25:33.398Z,99.68
2022-12-04T16:28:01.364Z,99.00
2022-12-04T16:30:31.701Z,98.33
2022-12-04T16:32:58.593Z,97.98
2022-12-04T16:35:25.178Z,97.57
2022-12-04T16:37:51.868Z,97.79
2022-12-04T16:40:18.504Z,98.09
2022-12-04T16:42:45.195Z,98.34
2022-12-04T16:45:34.015Z,98.07
2022-12-04T16:48:02.189Z,97.31
2022-12-04T16:50:31.474Z,96.93
2022-12-04T16:52:58.907Z,96.32
2022-12-04T16:55:36.376Z,96.68
2022-12-04T16:58:06.886Z,96.83
2022-12-04T17:00:36.759Z,96.68
2022-12-04T17:03:04.745Z,97.72
2022-12-04T17:05:35.043Z,97.29
2022-12-04T17:08:02.529Z,97.17
2022-12-04T17:10:30.526Z,96.88
2022-12-04T17:12:58.795Z,97.27
2022-12-04T17:15:27.056Z,97.08
2022-12-04T17:17:56.203Z,97.53
2022-12-04T17:20:37.003Z,97.50
2022-12-04T17:23:06.164Z,97.17
2022-12-04T17:25:42.592Z,96.92
2022-12-04T17:28:11.771Z,96.86
2022-12-04T17:30:45.729Z,97.14
2022-12-04T17:33:13.784Z,96.41
2022-12-04T17:35:45.034Z,96.04
2022-12-04T17:38:15.043Z,96.40
2022-12-04T17:40:44.046Z,95.01
2022-12-04T17:43:15.261Z,95.11
2022-12-04T17:45:48.966Z,95.36
2022-12-04T17:48:16.229Z,96.37
2022-12-04T17:50:44.869Z,97.26
2022-12-04T17:53:19.322Z,97.14
2022-12-04T17:55:50.909Z,97.30
2022-12-04T17:58:18.159Z,98.03
2022-12-04T18:00:49.506Z,98.78
2022-12-04T18:03:16.716Z,98.76
2022-12-04T18:05:43.634Z,99.06
2022-12-04T18:08:11.910Z,97.94
2022-12-04T18:10:39.602Z,98.70
2022-12-04T18:13:14.190Z,99.14
2022-12-04T18:15:41.224Z,98.15
2022-12-04T18:18:07.841Z,98.77
2022-12-04T18:20:34.526Z,99.21
2022-12-04T18:23:01.526Z,98.54
2022-12-04T18:25:28.485Z,98.70
2022-12-04T18:27:56.122Z,99.41
2022-12-04T18:30:22.906Z,99.31
2022-12-04T18:32:49.500Z,98.96
2022-12-04T18:35:16.287Z,99.37
2022-12-04T18:37:43.195Z,99.09
2022-12-04T18:40:10.281Z,99.40
2022-12-04T18:42:36.925Z,99.52
2022-12-04T18:45:04.119Z,98.79
2022-12-04T18:47:30.735Z,98.59
2022-12-04T18:49:57.646Z,98.36
2022-12-04T18:52:24.508Z,98.53
2022-12-04T18:54:51.214Z,98.07
2022-12-04T18:57:17.854Z,98.36
2022-12-04T18:59:44.659Z,97.88
2022-12-04T19:02:11.326Z,97.53
2022-12-04T19:04:38.033Z,97.98
2022-12-04T19:07:04.719Z,97.82
2022-12-04T19:10:08.903Z,97.58
2022-12-04T19:12:18.352Z,97.42
2022-12-04T19:14:44.984Z,97.24
2022-12-04T19:17:11.781Z,97.42
2022-12-04T19:19:38.678Z,96.83
2022-12-04T19:22:05.338Z,95.90
2022-12-04T19:24:32.132Z,95.57
2022-12-04T19:26:58.818Z,95.59
2022-12-04T19:29:25.425Z,95.40
2022-12-04T19:31:57.619Z,95.65
2022-12-04T19:34:26.196Z,95.75
2022-12-04T19:36:54.856Z,95.34
2022-12-04T19:39:21.832Z,95.78
2022-12-04T19:41:48.682Z,95.43
2022-12-04T19:44:47.285Z,94.80
2022-12-04T19:47:02.511Z,95.05
2022-12-04T19:49:30.433Z,94.93
2022-12-04T19:51:57.141Z,95.24
2022-12-04T19:54:23.900Z,94.98
2022-12-04T19:56:51.299Z,94.88
2022-12-04T19:59:19.238Z,96.89
2022-12-04T20:01:47.890Z,96.76
2022-12-04T20:04:14.701Z,97.55
2022-12-04T20:06:44.358Z,98.16
2022-12-04T20:09:14.596Z,98.50
2022-12-04T20:11:41.956Z,98.49
2022-12-04T20:14:08.591Z,97.62
2022-12-04T20:16:37.110Z,97.41
2022-12-04T20:19:05.155Z,97.67
2022-12-04T20:21:32.283Z,97.75
2022-12-04T20:24:03.622Z,97.40
2022-12-04T20:26:32.956Z,97.00
2022-12-04T20:29:01.348Z,97.01
2022-12-04T20:31:33.218Z,97.05
2022-12-04T20:34:03.525Z,98.13
2022-12-04T20:36:31.411Z,98.55
2022-12-04T20:38:59.266Z,98.13
2022-12-04T20:41:28.250Z,97.73
2022-12-04T20:43:55.748Z,98.36
2022-12-04T20:46:28.697Z,98.57
2022-12-04T20:48:55.610Z,97.95
2022-12-04T20:51:29.218Z,96.55
2022-12-04T20:53:57.239Z,96.60
2022-12-04T20:56:25.011Z,96.84
2022-12-04T20:58:54.666Z,95.47
2022-12-04T21:01:21.412Z,95.69
2022-12-04T21:03:48.174Z,96.20
2022-12-04T21:06:17.198Z,96.30
2022-12-04T21:08:43.944Z,95.29
2022-12-04T21:11:10.597Z,95.20
2022-12-04T21:13:37.616Z,94.61
2022-12-04T21:16:04.460Z,95.16
2022-12-04T21:18:31.168Z,94.40
2022-12-04T21:20:57.772Z,94.79
2022-12-04T21:23:49.299Z,94.98
2022-12-04T21:26:15.983Z,96.38
2022-12-04T21:28:42.867Z,96.56
2022-12-04T21:31:10.231Z,96.04
2022-12-04T21:33:36.868Z,96.46
2022-12-04T21:36:10.685Z,95.26
2022-12-04T21:38:40.203Z,95.04
2022-12-04T21:41:08.691Z,93.58
2022-12-04T21:43:36.806Z,94.29
2022-12-04T21:46:09.391Z,95.23
2022-12-04T21:48:36.646Z,96.08
2022-12-04T21:51:16.844Z,96.47
2022-12-04T21:53:55.359Z,97.59
2022-12-04T21:56:22.770Z,96.75
2022-12-04T21:58:50.236Z,96.90
2022-12-04T22:01:19.530Z,96.45
2022-12-04T22:03:47.759Z,97.11
2022-12-04T22:06:14.663Z,97.32
2022-12-04T22:08:41.717Z,96.83
2022-12-04T22:11:10.820Z,97.40
2022-12-04T22:13:38.779Z,98.20
2022-12-04T22:16:08.350Z,97.66
2022-12-04T22:18:35.540Z,97.72
2022-12-04T22:21:07.555Z,96.80
2022-12-04T22:23:34.855Z,96.07
2022-12-04T22:26:15.308Z,97.40
2022-12-04T22:28:42.637Z,97.84
2022-12-04T22:31:13.052Z,98.30
2022-12-04T22:33:40.544Z,96.29
2022-12-04T22:36:20.537Z,95.82
2022-12-04T22:39:08.756Z,94.98
2022-12-04T22:41:37.299Z,94.96
2022-12-04T22:44:04.680Z,94.57
2022-12-04T22:46:34.781Z,95.14
2022-12-04T22:49:01.624Z,95.65
2022-12-04T22:51:28.905Z,95.07
2022-12-04T22:53:57.759Z,96.36
2022-12-04T22:56:30.848Z,95.93
2022-12-04T22:58:58.774Z,95.35
2022-12-04T23:01:35.967Z,94.81
2022-12-04T23:04:04.068Z,95.32
2022-12-04T23:06:32.772Z,94.62
2022-12-04T23:09:02.771Z,94.19
2022-12-04T23:11:29.569Z,93.96
2022-12-04T23:13:58.733Z,94.53
2022-12-04T23:16:26.658Z,94.38
2022-12-04T23:18:53.953Z,94.49
2022-12-04T23:21:22.142Z,93.84
2022-12-04T23:23:49.688Z,93.65
2022-12-04T23:26:19.482Z,93.95
2022-12-04T23:28:46.455Z,94.48
2022-12-04T23:31:13.890Z,94.62
2022-12-04T23:33:41.638Z,94.83
2022-12-04T23:36:10.900Z,95.08
2022-12-04T23:38:39.470Z,94.91
2022-12-04T23:41:10.338Z,94.36
2022-12-04T23:43:37.661Z,95.30
2022-12-04T23:46:10.696Z,96.22
2022-12-04T23:48:39.526Z,95.43
2022-12-04T23:51:10.190Z,95.71
2022-12-04T23:53:37.277Z,95.76
2022-12-04T23:56:13.035Z,96.21
2022-12-04T23:58:40.771Z,95.21
